createdAt,value
2023-05-17T00:01:06.547Z,101854.09
2023-05-17T00:04:08.270Z,101850.78
2023-05-17T00:07:09.839Z,101851.06
2023-05-17T00:10:11.603Z,101854.03
2023-05-17T00:13:13.184Z,101854.19
2023-05-17T00:16:14.793Z,101855.31
2023-05-17T00:19:16.593Z,101851.94
2023-05-17T00:22:18.293Z,101858.25
2023-05-17T00:25:19.871Z,101864.75
2023-05-17T00:28:21.496Z,101862.22
2023-05-17T00:31:23.089Z,101863.16
2023-05-17T00:34:24.762Z,101858.91
2023-05-17T00:37:26.359Z,101856.41
2023-05-17T00:40:27.991Z,101853.09
2023-05-17T00:43:29.592Z,101859.50
2023-05-17T00:46:31.262Z,101848.13
2023-05-17T00:49:33.026Z,101852.75
2023-05-17T00:52:36.132Z,101853.84
2023-05-17T00:55:37.945Z,101853.09
2023-05-17T00:58:40.828Z,101859.56
2023-05-17T01:01:43.572Z,101859.75
2023-05-17T01:04:45.293Z,101852.78
2023-05-17T01:07:46.891Z,101861.75
2023-05-17T01:11:10.063Z,101861.03
2023-05-17T01:14:14.677Z,101864.63
2023-05-17T01:17:37.868Z,101863.84
2023-05-17T01:20:45.369Z,101871.88
2023-05-17T01:24:09.912Z,101861.38
2023-05-17T01:27:14.669Z,101868.47
2023-05-17T01:30:19.704Z,101872.94
2023-05-17T01:33:21.610Z,101879.19
2023-05-17T01:36:23.415Z,101877.38
2023-05-17T01:39:25.374Z,101878.38
2023-05-17T01:42:32.788Z,101892.59
2023-05-17T01:45:44.263Z,101883.75
2023-05-17T01:48:56.405Z,101885.53
2023-05-17T01:52:07.594Z,101893.59
2023-05-17T01:55:26.061Z,101891.16
2023-05-17T01:58:30.723Z,101897.38
2023-05-17T02:01:32.864Z,101898.31
2023-05-17T02:04:36.142Z,101902.69
2023-05-17T02:07:37.853Z,101900.97
2023-05-17T02:10:39.911Z,101903.75
2023-05-17T02:13:41.490Z,101911.78
2023-05-17T02:16:43.078Z,101906.53
2023-05-17T02:19:44.654Z,101908.41
2023-05-17T02:22:46.418Z,101922.59
2023-05-17T02:25:48.084Z,101914.75
2023-05-17T02:28:49.681Z,101917.47
2023-05-17T02:31:51.324Z,101920.22
2023-05-17T02:34:52.911Z,101927.44
2023-05-17T02:37:54.463Z,101923.22
2023-05-17T02:40:56.107Z,101920.78
2023-05-17T02:43:57.746Z,101932.34
2023-05-17T02:46:59.382Z,101937.78
2023-05-17T02:50:01.247Z,101931.59
2023-05-17T02:53:02.872Z,101937.81
2023-05-17T02:56:04.612Z,101943.19
2023-05-17T02:59:06.198Z,101954.72
2023-05-17T03:02:07.967Z,101956.53
2023-05-17T03:05:10.104Z,101950.38
2023-05-17T03:08:11.823Z,101953.94
2023-05-17T03:11:13.462Z,101954.81
2023-05-17T03:14:15.068Z,101968.94
2023-05-17T03:17:16.615Z,101972.47
2023-05-17T03:20:18.479Z,101979.59
2023-05-17T03:23:20.113Z,101982.25
2023-05-17T03:26:23.077Z,101984.19
2023-05-17T03:29:24.719Z,101985.19
2023-05-17T03:32:26.380Z,101989.63
2023-05-17T03:35:28.213Z,101987.06
2023-05-17T03:38:30.111Z,101989.72
2023-05-17T03:41:32.245Z,101997.75
2023-05-17T03:44:33.811Z,101998.75
2023-05-17T03:47:35.460Z,102005.84
2023-05-17T03:50:37.173Z,102007.69
2023-05-17T03:53:43.176Z,102007.69
2023-05-17T03:56:47.423Z,102003.25
2023-05-17T03:59:49.145Z,101999.75
2023-05-17T04:02:52.133Z,102008.59
2023-05-17T04:05:53.858Z,102014.91
2023-05-17T04:08:55.747Z,102019.28
2023-05-17T04:11:57.523Z,102021.88
2023-05-17T04:14:59.336Z,102027.97
2023-05-17T04:18:01.076Z,102027.06
2023-05-17T04:21:03.453Z,102033.13
2023-05-17T04:24:05.305Z,102029.50
2023-05-17T04:27:07.314Z,102028.56
2023-05-17T04:30:09.362Z,102038.31
2023-05-17T04:33:12.713Z,102041.94
2023-05-17T04:36:15.965Z,102043.78
2023-05-17T04:39:18.243Z,102048.31
2023-05-17T04:42:19.802Z,102049.22
2023-05-17T04:45:21.435Z,102066.88
2023-05-17T04:48:23.161Z,102066.00
2023-05-17T04:51:24.864Z,102061.56
2023-05-17T04:54:27.265Z,102061.56
2023-05-17T04:57:28.865Z,102073.06
2023-05-17T05:00:30.455Z,102082.69
2023-05-17T05:03:32.062Z,102079.16
2023-05-17T05:06:34.528Z,102092.38
2023-05-17T05:09:36.111Z,102092.44
2023-05-17T05:12:37.954Z,102105.72
2023-05-17T05:15:39.562Z,102109.25
2023-05-17T05:18:41.249Z,102107.56
2023-05-17T05:21:46.152Z,102110.22
2023-05-17T05:24:47.789Z,102111.94
2023-05-17T05:27:49.432Z,102119.91
2023-05-17T05:30:51.123Z,102128.72
2023-05-17T05:33:52.726Z,102133.06
2023-05-17T05:36:54.356Z,102141.81
2023-05-17T05:39:55.898Z,102144.34
2023-05-17T05:42:57.539Z,102156.56
2023-05-17T05:45:59.123Z,102147.63
2023-05-17T05:49:00.852Z,102153.72
2023-05-17T05:52:02.765Z,102158.06
2023-05-17T05:55:04.976Z,102169.69
2023-05-17T05:58:06.550Z,102178.81
2023-05-17T06:01:08.284Z,102174.59
2023-05-17T06:04:10.005Z,102180.91
2023-05-17T06:07:12.335Z,102184.38
2023-05-17T06:10:14.168Z,102189.06
2023-05-17T06:13:15.873Z,102196.34
2023-05-17T06:16:17.777Z,102201.06
2023-05-17T06:19:20.386Z,102201.38
2023-05-17T06:22:22.182Z,102214.00
2023-05-17T06:25:23.851Z,102217.72
2023-05-17T06:28:26.443Z,102212.59
2023-05-17T06:31:28.058Z,102218.97
2023-05-17T06:34:29.631Z,102226.34
2023-05-17T06:37:32.096Z,102214.88
2023-05-17T06:40:33.871Z,102227.38
2023-05-17T06:43:37.107Z,102225.69
2023-05-17T06:46:39.409Z,102238.75
2023-05-17T06:49:41.207Z,102233.25
2023-05-17T06:52:42.769Z,102245.06
2023-05-17T06:55:44.635Z,102245.75
2023-05-17T06:58:46.218Z,102249.25
2023-05-17T07:01:48.004Z,102252.78
2023-05-17T07:04:49.822Z,102259.09
2023-05-17T07:07:51.471Z,102258.41
2023-05-17T07:10:53.562Z,102276.22
2023-05-17T07:13:55.138Z,102271.97
2023-05-17T07:16:56.688Z,102273.88
2023-05-17T07:19:58.507Z,102279.25
2023-05-17T07:23:00.300Z,102274.84
2023-05-17T07:26:01.925Z,102284.63
2023-05-17T07:29:03.688Z,102282.81
2023-05-17T07:32:05.650Z,102285.44
2023-05-17T07:35:07.599Z,102286.19
2023-05-17T07:38:10.802Z,102291.31
2023-05-17T07:41:13.934Z,102296.50
2023-05-17T07:44:15.548Z,102297.31
2023-05-17T07:47:18.295Z,102291.88
2023-05-17T07:50:20.062Z,102297.69
2023-05-17T07:53:21.827Z,102301.78
2023-05-17T07:56:23.636Z,102318.16
2023-05-17T07:59:25.541Z,102320.47
2023-05-17T08:02:27.142Z,102339.88
2023-05-17T08:05:28.982Z,102331.91
2023-05-17T08:08:30.807Z,102332.56
2023-05-17T08:11:35.167Z,102336.94
2023-05-17T08:14:36.976Z,102331.72
2023-05-17T08:17:38.628Z,102333.53
2023-05-17T08:20:40.305Z,102339.97
2023-05-17T08:23:42.125Z,102342.66
2023-05-17T08:26:44.711Z,102346.31
2023-05-17T08:29:47.424Z,102329.44
2023-05-17T08:32:49.166Z,102346.13
2023-05-17T08:35:52.860Z,102357.66
2023-05-17T08:38:54.629Z,102360.50
2023-05-17T08:41:59.601Z,102372.09
2023-05-17T08:45:01.357Z,102363.50
2023-05-17T08:48:03.475Z,102351.25
2023-05-17T08:51:06.361Z,102370.06
2023-05-17T08:54:08.636Z,102357.56
2023-05-17T08:57:11.827Z,102373.34
2023-05-17T09:00:19.602Z,102382.22
2023-05-17T09:03:22.638Z,102390.38
2023-05-17T09:06:24.582Z,102386.19
2023-05-17T09:09:26.796Z,102395.22
2023-05-17T09:12:28.374Z,102392.50
2023-05-17T09:15:34.166Z,102402.16
2023-05-17T09:18:35.979Z,102411.13
2023-05-17T09:21:38.063Z,102400.41
2023-05-17T09:24:41.558Z,102412.53
2023-05-17T09:27:43.154Z,102409.69
2023-05-17T09:30:44.786Z,102407.03
2023-05-17T09:33:48.484Z,102404.31
2023-05-17T09:36:51.445Z,102406.66
2023-05-17T09:39:55.152Z,102418.78
2023-05-17T09:42:58.176Z,102419.50
2023-05-17T09:45:59.845Z,102432.09
2023-05-17T09:49:03.452Z,102429.56
2023-05-17T09:52:08.079Z,102424.78
2023-05-17T09:55:11.865Z,102416.31
2023-05-17T09:58:14.177Z,102418.44
2023-05-17T10:01:17.686Z,102415.34
2023-05-17T10:04:23.302Z,102415.38
2023-05-17T10:07:26.686Z,102429.44
2023-05-17T10:10:30.095Z,102424.44
2023-05-17T10:13:42.228Z,102420.31
2023-05-17T10:16:45.609Z,102421.38
2023-05-17T10:19:47.845Z,102418.91
2023-05-17T10:22:50.538Z,102419.00
2023-05-17T10:25:52.390Z,102418.31
2023-05-17T10:29:00.741Z,102420.25
2023-05-17T10:32:10.597Z,102411.41
2023-05-17T10:35:15.489Z,102416.56
2023-05-17T10:38:19.139Z,102419.78
2023-05-17T10:41:24.432Z,102424.78
2023-05-17T10:44:26.552Z,102428.19
2023-05-17T10:47:34.630Z,102430.44
2023-05-17T10:50:54.043Z,102430.38
2023-05-17T10:54:20.857Z,102429.44
2023-05-17T11:00:42.408Z,102426.81
2023-05-17T11:03:44.370Z,102435.69
2023-05-17T11:06:46.127Z,102456.03
2023-05-17T11:09:56.441Z,102458.56
2023-05-17T11:12:58.149Z,102448.03
2023-05-17T11:16:05.070Z,102446.56
2023-05-17T11:19:09.328Z,102453.03
2023-05-17T11:22:12.335Z,102447.91
2023-05-17T11:25:14.735Z,102452.44
2023-05-17T11:28:22.381Z,102437.25
2023-05-17T11:31:35.998Z,102445.09
2023-05-17T11:34:38.594Z,102443.91
2023-05-17T11:37:44.200Z,102446.00
2023-05-17T11:40:47.792Z,102434.66
2023-05-17T11:43:50.010Z,102443.84
2023-05-17T11:46:53.302Z,102455.44
2023-05-17T11:49:56.726Z,102449.22
2023-05-17T11:53:00.329Z,102440.44
2023-05-17T11:56:06.046Z,102451.97
2023-05-17T11:59:07.751Z,102452.63
2023-05-17T12:02:10.043Z,102443.63
2023-05-17T12:05:12.546Z,102445.34
2023-05-17T12:08:18.938Z,102444.41
2023-05-17T12:11:21.934Z,102455.06
2023-05-17T12:14:24.559Z,102461.56
2023-05-17T12:17:35.407Z,102452.84
2023-05-17T12:20:39.073Z,102454.91
2023-05-17T12:23:47.860Z,102471.13
2023-05-17T12:26:50.688Z,102465.13
2023-05-17T12:29:52.407Z,102464.47
2023-05-17T12:32:54.414Z,102460.88
2023-05-17T12:35:56.381Z,102463.47
2023-05-17T12:38:58.317Z,102458.94
2023-05-17T12:42:01.345Z,102455.25
2023-05-17T12:45:03.258Z,102451.66
2023-05-17T12:48:05.375Z,102451.66
2023-05-17T12:51:15.376Z,102456.88
2023-05-17T12:54:28.139Z,102463.78
2023-05-17T12:57:30.221Z,102456.78
2023-05-17T13:00:32.025Z,102479.94
2023-05-17T13:03:35.056Z,102486.44
2023-05-17T13:06:50.133Z,102476.81
2023-05-17T13:09:51.938Z,102468.53
2023-05-17T13:13:00.533Z,102465.97
2023-05-17T13:16:02.734Z,102472.66
2023-05-17T13:19:15.415Z,102477.03
2023-05-17T13:22:17.473Z,102476.84
2023-05-17T13:25:19.650Z,102469.53
2023-05-17T13:28:21.318Z,102472.06
2023-05-17T13:31:22.970Z,102474.09
2023-05-17T13:34:24.737Z,102474.38
2023-05-17T13:37:26.558Z,102468.41
2023-05-17T13:40:28.400Z,102473.88
2023-05-17T13:43:30.364Z,102467.84
2023-05-17T13:46:32.155Z,102462.72
2023-05-17T13:49:33.888Z,102462.84
2023-05-17T13:52:35.560Z,102461.91
2023-05-17T13:55:39.594Z,102473.59
2023-05-17T13:58:41.593Z,102472.00
2023-05-17T14:01:43.898Z,102465.94
2023-05-17T14:04:45.596Z,102474.94
2023-05-17T14:07:47.321Z,102469.69
2023-05-17T14:10:49.048Z,102485.75
2023-05-17T14:13:51.081Z,102483.00
2023-05-17T14:16:52.745Z,102487.47
2023-05-17T14:19:55.053Z,102482.09
2023-05-17T14:22:56.780Z,102472.13
2023-05-17T14:25:58.448Z,102471.88
2023-05-17T14:29:00.307Z,102478.66
2023-05-17T14:32:02.050Z,102478.38
2023-05-17T14:35:04.358Z,102486.22
2023-05-17T14:38:06.184Z,102483.31
2023-05-17T14:41:08.072Z,102482.31
2023-05-17T14:44:09.724Z,102472.72
2023-05-17T14:47:11.635Z,102472.78
2023-05-17T14:50:13.262Z,102479.88
2023-05-17T14:53:14.953Z,102481.84
2023-05-17T14:56:16.935Z,102490.06
2023-05-17T14:59:18.687Z,102479.53
2023-05-17T15:02:20.391Z,102496.41
2023-05-17T15:05:22.225Z,102486.44
2023-05-17T15:08:24.087Z,102486.06
2023-05-17T15:11:25.790Z,102480.06
2023-05-17T15:14:27.476Z,102487.84
2023-05-17T15:17:29.207Z,102492.22
2023-05-17T15:20:31.401Z,102490.03
2023-05-17T15:23:33.119Z,102495.09
2023-05-17T15:26:34.951Z,102487.72
2023-05-17T15:29:38.925Z,102495.47
2023-05-17T15:32:40.999Z,102489.97
2023-05-17T15:35:43.382Z,102494.88
2023-05-17T15:38:45.143Z,102487.19
2023-05-17T15:41:46.834Z,102487.44
2023-05-17T15:44:48.504Z,102493.88
2023-05-17T15:47:50.695Z,102498.56
2023-05-17T15:50:52.636Z,102488.09
2023-05-17T15:53:55.162Z,102492.59
2023-05-17T15:56:56.887Z,102501.56
2023-05-17T15:59:58.536Z,102497.22
2023-05-17T16:03:00.649Z,102500.16
2023-05-17T16:06:04.430Z,102499.66
2023-05-17T16:09:06.219Z,102506.22
2023-05-17T16:12:08.217Z,102505.69
2023-05-17T16:15:10.388Z,102505.84
2023-05-17T16:18:14.972Z,102508.56
2023-05-17T16:21:16.933Z,102503.34
2023-05-17T16:24:19.299Z,102497.31
2023-05-17T16:27:21.883Z,102511.50
2023-05-17T16:30:24.016Z,102500.88
2023-05-17T16:33:25.948Z,102513.50
2023-05-17T16:36:27.912Z,102507.50
2023-05-17T16:39:29.717Z,102530.81
2023-05-17T16:42:31.698Z,102518.59
2023-05-17T16:45:33.659Z,102524.03
2023-05-17T16:48:35.320Z,102530.44
2023-05-17T16:51:37.050Z,102526.22
2023-05-17T16:54:38.800Z,102530.00
2023-05-17T16:57:42.132Z,102529.41
2023-05-17T17:00:43.794Z,102527.69
2023-05-17T17:03:45.642Z,102530.47
2023-05-17T17:06:47.652Z,102535.91
2023-05-17T17:09:49.299Z,102535.19
2023-05-17T17:12:51.018Z,102533.44
2023-05-17T17:15:53.171Z,102531.84
2023-05-17T17:18:54.987Z,102540.00
2023-05-17T17:21:56.680Z,102535.69
2023-05-17T17:24:58.357Z,102545.44
2023-05-17T17:27:59.998Z,102554.34
2023-05-17T17:31:01.580Z,102545.56
2023-05-17T17:34:03.148Z,102543.78
2023-05-17T17:37:04.973Z,102559.56
2023-05-17T17:40:08.059Z,102550.81
2023-05-17T17:43:09.693Z,102552.69
2023-05-17T17:46:12.146Z,102551.88
2023-05-17T17:49:13.844Z,102559.06
2023-05-17T17:52:15.494Z,102559.16
2023-05-17T17:55:17.140Z,102555.81
2023-05-17T17:58:18.758Z,102558.56
2023-05-17T18:01:20.451Z,102566.56
2023-05-17T18:04:22.139Z,102571.91
2023-05-17T18:07:23.777Z,102566.56
2023-05-17T18:10:25.538Z,102571.88
2023-05-17T18:13:27.211Z,102569.25
2023-05-17T18:16:28.912Z,102572.16
2023-05-17T18:19:30.711Z,102567.84
2023-05-17T18:22:33.154Z,102573.25
2023-05-17T18:25:35.194Z,102577.78
2023-05-17T18:28:42.281Z,102586.72
2023-05-17T18:31:44.497Z,102582.38
2023-05-17T18:34:46.168Z,102578.91
2023-05-17T18:37:47.812Z,102579.84
2023-05-17T18:40:49.582Z,102574.56
2023-05-17T18:43:51.185Z,102580.00
2023-05-17T18:46:53.965Z,102580.91
2023-05-17T18:49:55.817Z,102582.84
2023-05-17T18:52:57.467Z,102590.06
2023-05-17T18:56:02.655Z,102583.91
2023-05-17T18:59:05.161Z,102584.91
2023-05-17T19:02:07.820Z,102583.22
2023-05-17T19:05:09.511Z,102591.31
2023-05-17T19:08:11.221Z,102591.41
2023-05-17T19:11:12.818Z,102589.84
2023-05-17T19:14:15.077Z,102596.19
2023-05-17T19:17:17.072Z,102596.31
2023-05-17T19:20:19.050Z,102601.75
2023-05-17T19:23:21.434Z,102594.78
2023-05-17T19:26:23.042Z,102594.91
2023-05-17T19:29:24.894Z,102596.72
2023-05-17T19:32:27.048Z,102602.13
2023-05-17T19:35:28.778Z,102603.09
2023-05-17T19:38:31.286Z,102605.75
2023-05-17T19:41:32.859Z,102607.53
2023-05-17T19:44:34.444Z,102603.09
2023-05-17T19:47:36.006Z,102613.66
2023-05-17T19:50:37.773Z,102610.97
2023-05-17T19:53:51.462Z,102607.34
2023-05-17T19:56:54.950Z,102610.88
2023-05-17T19:59:56.532Z,102612.69
2023-05-17T20:02:58.282Z,102609.22
2023-05-17T20:05:59.957Z,102606.66
2023-05-17T20:09:01.948Z,102611.97
2023-05-17T20:12:04.094Z,102610.16
2023-05-17T20:15:06.399Z,102614.53
2023-05-17T20:18:09.224Z,102609.22
2023-05-17T20:21:12.876Z,102611.88
2023-05-17T20:24:14.587Z,102605.69
2023-05-17T20:27:16.227Z,102608.34
2023-05-17T20:30:17.857Z,102609.22
2023-05-17T20:33:26.260Z,102608.31
2023-05-17T20:36:28.887Z,102607.38
2023-05-17T20:39:31.136Z,102597.59
2023-05-17T20:42:32.761Z,102596.72
2023-05-17T20:45:34.480Z,102597.66
2023-05-17T20:48:36.786Z,102603.03
2023-05-17T20:51:39.085Z,102598.81
2023-05-17T20:54:40.715Z,102600.41
2023-05-17T20:57:42.334Z,102610.16
2023-05-17T21:00:43.947Z,102604.97
2023-05-17T21:03:45.854Z,102614.88
2023-05-17T21:06:47.593Z,102609.72
2023-05-17T21:09:49.212Z,102615.06
2023-05-17T21:12:50.919Z,102608.91
2023-05-17T21:15:56.393Z,102610.69
2023-05-17T21:18:58.072Z,102615.16
2023-05-17T21:21:59.690Z,102608.13
2023-05-17T21:25:01.259Z,102612.66
2023-05-17T21:28:03.037Z,102606.47
2023-05-17T21:31:04.827Z,102599.38
2023-05-17T21:34:06.449Z,102597.78
2023-05-17T21:37:08.000Z,102597.88
2023-05-17T21:40:10.366Z,102594.41
2023-05-17T21:43:12.064Z,102599.78
2023-05-17T21:46:13.758Z,102594.56
2023-05-17T21:49:15.523Z,102602.72
2023-05-17T21:52:17.804Z,102600.06
2023-05-17T21:55:19.515Z,102592.97
2023-05-17T21:58:21.323Z,102598.28
2023-05-17T22:01:24.248Z,102599.19
2023-05-17T22:04:26.342Z,102600.16
2023-05-17T22:07:28.056Z,102600.22
2023-05-17T22:10:30.590Z,102602.88
2023-05-17T22:13:32.724Z,102596.69
2023-05-17T22:16:35.967Z,102591.09
2023-05-17T22:19:40.690Z,102599.34
2023-05-17T22:22:43.025Z,102595.03
2023-05-17T22:25:44.725Z,102602.41
2023-05-17T22:28:46.484Z,102600.81
2023-05-17T22:31:50.254Z,102594.81
2023-05-17T22:34:52.940Z,102597.63
2023-05-17T22:37:54.863Z,102597.84
2023-05-17T22:40:56.596Z,102599.78
2023-05-17T22:43:58.216Z,102598.13
2023-05-17T22:47:02.464Z,102597.38
2023-05-17T22:50:05.099Z,102598.34
2023-05-17T22:53:06.873Z,102600.28
2023-05-17T22:56:08.562Z,102602.22
2023-05-17T22:59:10.256Z,102617.38
2023-05-17T23:02:12.444Z,102614.84
2023-05-17T23:05:14.386Z,102614.09
2023-05-17T23:08:16.419Z,102616.88
2023-05-17T23:11:18.154Z,102617.91
2023-05-17T23:14:21.771Z,102611.91
2023-05-17T23:17:24.124Z,102615.56
2023-05-17T23:20:26.619Z,102617.41
2023-05-17T23:23:30.008Z,102622.78
2023-05-17T23:26:34.018Z,102615.66
2023-05-17T23:29:36.286Z,102610.91
2023-05-17T23:32:37.958Z,102618.81
2023-05-17T23:35:39.610Z,102616.25
2023-05-17T23:38:41.217Z,102625.22
2023-05-17T23:41:43.136Z,102607.63
2023-05-17T23:44:46.530Z,102615.72
2023-05-17T23:47:50.209Z,102612.28
2023-05-17T23:50:51.958Z,102610.72
2023-05-17T23:53:53.536Z,102617.97
2023-05-17T23:56:55.907Z,102615.47
2023-05-17T23:59:57.494Z,102621.81
